Time;durP1;ratioP1;P1;durP2;ratioP2;P2;SDS_P1;SDS_P2;PMS_P1;PMS_P2;Temp;Humidity;BMP_temperature;BMP_pressure;BME280_temperature;BME280_humidity;BME280_pressure;Samples;Min_cycle;Max_cycle;Signal;HPM_P1;HPM_P2
2023/10/31 00:01:51;;;;;;;9.50;4.13;;;15.60;87.50;;;;;;4840834;29;20518;-84
2023/10/31 00:04:17;;;;;;;9.77;4.45;;;15.60;87.50;;;;;;4836481;29;20451;-85
2023/10/31 00:06:43;;;;;;;9.30;4.57;;;15.50;88.10;;;;;;4840743;29;20029;-84
2023/10/31 00:09:10;;;;;;;9.32;3.85;;;15.40;88.40;;;;;;4841134;29;20054;-85
2023/10/31 00:11:37;;;;;;;9.63;4.22;;;15.40;88.80;;;;;;4817070;29;20031;-82
2023/10/31 00:14:03;;;;;;;10.73;4.63;;;15.40;89.90;;;;;;4829358;29;20058;-83
2023/10/31 00:16:29;;;;;;;10.32;4.47;;;15.30;90.20;;;;;;4834115;29;20033;-84
2023/10/31 00:18:55;;;;;;;6.45;3.42;;;15.20;90.20;;;;;;4832656;29;20022;-84
2023/10/31 00:21:21;;;;;;;8.95;4.45;;;15.20;91.10;;;;;;4823096;29;20214;-84
2023/10/31 00:23:48;;;;;;;9.88;3.97;;;15.10;90.70;;;;;;4834966;29;20105;-83
2023/10/31 00:26:14;;;;;;;11.23;4.95;;;15.10;90.20;;;;;;4833847;29;20086;-83
2023/10/31 00:28:47;;;;;;;9.70;4.57;;;15.00;90.20;;;;;;4837295;29;20459;-82
2023/10/31 00:31:14;;;;;;;11.70;4.13;;;14.90;90.30;;;;;;4834246;29;20113;-84
2023/10/31 00:33:40;;;;;;;10.60;5.03;;;14.90;90.60;;;;;;4836944;29;20085;-84
2023/10/31 00:36:07;;;;;;;10.18;4.57;;;14.90;91.00;;;;;;4820436;29;20471;-84
2023/10/31 00:38:33;;;;;;;9.93;5.13;;;14.90;91.00;;;;;;4836572;29;20036;-84
2023/10/31 00:40:59;;;;;;;8.35;3.45;;;14.90;90.90;;;;;;4813808;29;20129;-83
2023/10/31 00:43:24;;;;;;;12.02;3.75;;;14.90;91.00;;;;;;4821584;29;20061;-84
2023/10/31 00:45:50;;;;;;;10.25;3.58;;;14.90;90.80;;;;;;4819140;29;20037;-84
2023/10/31 00:48:16;;;;;;;8.45;3.40;;;14.90;90.70;;;;;;4823089;29;20387;-82
2023/10/31 00:50:43;;;;;;;8.95;3.40;;;14.90;90.90;;;;;;4817567;29;20049;-83
2023/10/31 00:53:10;;;;;;;6.18;3.13;;;15.00;90.70;;;;;;4824119;29;20040;-84
2023/10/31 00:55:38;;;;;;;7.32;3.33;;;15.00;90.70;;;;;;4819297;29;20041;-84
2023/10/31 00:58:04;;;;;;;7.38;2.80;;;15.10;90.40;;;;;;4809460;29;20026;-82
2023/10/31 01:00:30;;;;;;;8.30;3.00;;;15.20;90.30;;;;;;4827873;29;20042;-85
2023/10/31 01:02:56;;;;;;;7.07;3.47;;;15.20;90.30;;;;;;4836463;29;20110;-84
2023/10/31 01:05:22;;;;;;;8.02;3.50;;;15.20;90.50;;;;;;4825691;29;20045;-84
2023/10/31 01:07:48;;;;;;;7.63;3.83;;;15.30;90.50;;;;;;4821497;29;20109;-85
2023/10/31 01:10:14;;;;;;;9.77;3.83;;;15.30;90.40;;;;;;4833955;29;20141;-85
2023/10/31 01:12:40;;;;;;;8.73;4.50;;;15.30;90.40;;;;;;4823537;29;20041;-84
2023/10/31 01:15:06;;;;;;;11.07;5.38;;;15.40;90.90;;;;;;4834151;29;20105;-82
2023/10/31 01:17:32;;;;;;;13.80;5.65;;;15.50;91.00;;;;;;4826856;29;20049;-82
2023/10/31 01:19:58;;;;;;;13.82;5.78;;;15.50;90.00;;;;;;4830712;29;20073;-85
2023/10/31 01:22:24;;;;;;;12.52;6.63;;;15.60;88.80;;;;;;4823446;29;20156;-84
2023/10/31 01:24:50;;;;;;;17.70;6.10;;;15.70;88.70;;;;;;4836415;29;20145;-84
2023/10/31 01:27:16;;;;;;;12.80;5.30;;;15.80;87.20;;;;;;4831115;29;20030;-86
2023/10/31 01:29:41;;;;;;;10.15;4.78;;;15.90;87.10;;;;;;4831185;29;20101;-83
2023/10/31 01:32:07;;;;;;;13.25;5.45;;;16.00;86.00;;;;;;4832665;29;20435;-83
2023/10/31 01:34:33;;;;;;;22.55;15.07;;;16.10;85.50;;;;;;4840465;29;20094;-82
2023/10/31 01:36:59;;;;;;;20.50;11.90;;;16.10;86.50;;;;;;4835149;29;20076;-83
2023/10/31 01:39:26;;;;;;;14.55;7.32;;;16.10;86.90;;;;;;4831101;29;20107;-85
2023/10/31 01:41:54;;;;;;;7.60;3.80;;;16.10;86.50;;;;;;4834635;29;20509;-85
2023/10/31 01:44:20;;;;;;;8.52;3.90;;;16.10;86.70;;;;;;4830771;29;20041;-85
2023/10/31 01:46:46;;;;;;;11.57;5.97;;;16.10;86.60;;;;;;4823767;29;20107;-84
2023/10/31 01:49:14;;;;;;;13.10;7.22;;;16.00;86.90;;;;;;4816190;29;20034;-82
2023/10/31 01:51:41;;;;;;;13.43;7.63;;;16.10;87.40;;;;;;4840021;29;20170;-83
2023/10/31 01:54:08;;;;;;;12.93;4.63;;;16.10;87.60;;;;;;4831152;29;20451;-84
2023/10/31 01:56:34;;;;;;;9.52;3.67;;;16.00;88.50;;;;;;4835359;29;20391;-84
2023/10/31 01:59:00;;;;;;;8.57;3.42;;;16.10;87.90;;;;;;4827341;29;20053;-80
2023/10/31 02:01:27;;;;;;;16.52;7.30;;;16.10;88.10;;;;;;4826061;29;20019;-83
2023/10/31 02:03:53;;;;;;;14.10;9.00;;;16.10;88.10;;;;;;4831932;29;20082;-84
2023/10/31 02:06:19;;;;;;;10.20;4.50;;;16.10;86.90;;;;;;4827768;29;20038;-83
2023/10/31 02:08:47;;;;;;;10.55;6.53;;;16.10;87.30;;;;;;4823369;29;20358;-82
2023/10/31 02:11:13;;;;;;;18.23;10.57;;;16.10;87.20;;;;;;4833766;29;20495;-83
2023/10/31 02:13:39;;;;;;;27.90;19.30;;;16.10;86.00;;;;;;4820703;29;20164;-84
2023/10/31 02:16:06;;;;;;;36.35;27.90;;;16.10;86.60;;;;;;4823886;29;20026;-82
2023/10/31 02:18:33;;;;;;;47.53;38.65;;;16.10;86.50;;;;;;4839500;29;20045;-83
2023/10/31 02:20:59;;;;;;;49.03;41.05;;;16.10;85.50;;;;;;4826456;29;20049;-83
2023/10/31 02:23:26;;;;;;;37.97;30.60;;;16.10;85.00;;;;;;4840681;29;20506;-83
2023/10/31 02:25:52;;;;;;;37.38;28.92;;;16.10;84.70;;;;;;4812510;29;20117;-84
2023/10/31 02:28:18;;;;;;;36.65;28.77;;;16.10;84.30;;;;;;4836560;29;20390;-84
2023/10/31 02:30:44;;;;;;;27.27;20.48;;;16.20;84.40;;;;;;4839010;29;20030;-84
2023/10/31 02:33:10;;;;;;;23.70;14.13;;;16.10;84.60;;;;;;4821071;29;20088;-85
2023/10/31 02:35:36;;;;;;;15.98;8.20;;;16.20;84.00;;;;;;4823746;29;20449;-87
2023/10/31 02:38:02;;;;;;;7.60;3.85;;;16.20;84.40;;;;;;4809584;29;20090;-85
2023/10/31 02:40:28;;;;;;;8.88;3.97;;;16.30;83.70;;;;;;4836851;29;20030;-82
2023/10/31 02:42:53;;;;;;;7.60;2.65;;;16.30;83.80;;;;;;4835540;29;20027;-85
2023/10/31 02:45:19;;;;;;;4.05;2.55;;;16.40;83.80;;;;;;4828380;29;20031;-82
2023/10/31 02:47:45;;;;;;;8.35;2.92;;;16.40;83.60;;;;;;4837877;29;20507;-86
2023/10/31 02:50:11;;;;;;;9.27;3.10;;;16.50;82.50;;;;;;4813029;29;20066;-84
2023/10/31 02:52:37;;;;;;;6.13;2.47;;;16.50;82.70;;;;;;4843256;29;20450;-84
2023/10/31 02:55:03;;;;;;;6.30;2.15;;;16.60;82.40;;;;;;4826570;29;20037;-84
2023/10/31 02:57:29;;;;;;;6.50;2.15;;;16.60;82.30;;;;;;4835311;29;20057;-81
2023/10/31 02:59:55;;;;;;;7.50;3.00;;;16.60;82.20;;;;;;4836263;29;20062;-85
2023/10/31 03:02:22;;;;;;;5.75;2.50;;;16.70;81.40;;;;;;4836221;29;20030;-85
2023/10/31 03:04:48;;;;;;;8.32;3.03;;;16.70;82.10;;;;;;4810484;29;20030;-83
2023/10/31 03:07:14;;;;;;;7.45;3.08;;;16.70;81.90;;;;;;4816177;29;20031;-78
2023/10/31 03:09:40;;;;;;;9.38;4.57;;;16.80;81.40;;;;;;4816858;29;20050;-81
2023/10/31 03:12:06;;;;;;;16.58;8.63;;;16.80;81.40;;;;;;4815283;29;20039;-83
2023/10/31 03:14:32;;;;;;;14.02;7.78;;;16.70;82.00;;;;;;4843785;29;20398;-83
2023/10/31 03:16:58;;;;;;;13.20;6.72;;;16.70;83.20;;;;;;4830357;29;20034;-82
2023/10/31 03:19:23;;;;;;;18.00;8.73;;;16.70;83.60;;;;;;4839526;29;20082;-82
2023/10/31 03:21:50;;;;;;;19.50;11.48;;;16.60;84.90;;;;;;4840133;29;20038;-84
2023/10/31 03:24:15;;;;;;;17.45;10.57;;;16.60;86.20;;;;;;4826946;29;20037;-82
2023/10/31 03:26:41;;;;;;;22.02;10.27;;;16.50;86.70;;;;;;4840687;29;20376;-84
2023/10/31 03:29:07;;;;;;;19.70;10.93;;;16.50;86.50;;;;;;4822017;29;20578;-84
2023/10/31 03:31:33;;;;;;;17.63;11.18;;;16.50;86.60;;;;;;4833812;29;20022;-84
2023/10/31 03:33:58;;;;;;;20.08;12.00;;;16.40;85.30;;;;;;4826285;29;20046;-83
2023/10/31 03:36:24;;;;;;;20.42;12.57;;;16.40;86.30;;;;;;4815803;29;20030;-83
2023/10/31 03:38:50;;;;;;;23.38;15.13;;;16.50;84.80;;;;;;4839617;29;20475;-81
2023/10/31 03:41:17;;;;;;;18.10;11.57;;;16.50;84.90;;;;;;4831167;29;20511;-82
2023/10/31 03:43:43;;;;;;;18.48;9.77;;;16.50;84.40;;;;;;4831634;29;20034;-82
2023/10/31 03:46:09;;;;;;;15.77;8.85;;;16.50;84.70;;;;;;4836557;29;20033;-85
2023/10/31 03:48:34;;;;;;;24.58;13.10;;;16.50;85.80;;;;;;4836647;29;20022;-82
2023/10/31 03:51:00;;;;;;;26.33;18.95;;;16.50;85.50;;;;;;4840656;29;20122;-84
2023/10/31 03:53:26;;;;;;;25.08;18.90;;;16.50;84.60;;;;;;4822098;29;20471;-84
2023/10/31 03:55:52;;;;;;;25.35;19.48;;;16.60;84.10;;;;;;4834778;29;20030;-83
2023/10/31 03:58:18;;;;;;;34.00;24.48;;;16.70;81.50;;;;;;4822406;29;20053;-84
2023/10/31 04:00:44;;;;;;;32.78;26.02;;;16.80;81.70;;;;;;4837254;29;20509;-81
2023/10/31 04:03:09;;;;;;;31.38;26.15;;;16.80;82.10;;;;;;4831547;29;20026;-80
2023/10/31 04:05:35;;;;;;;27.25;21.20;;;16.80;81.10;;;;;;4812285;29;20026;-82
2023/10/31 04:08:02;;;;;;;10.68;6.57;;;16.90;81.00;;;;;;4834480;29;20083;-81
2023/10/31 04:10:27;;;;;;;8.85;3.08;;;16.90;81.90;;;;;;4820167;29;20052;-81
2023/10/31 04:12:53;;;;;;;6.78;3.20;;;16.90;81.50;;;;;;4813222;29;20121;-84
2023/10/31 04:15:19;;;;;;;8.73;2.75;;;16.90;82.30;;;;;;4834064;29;20023;-81
2023/10/31 04:17:45;;;;;;;4.47;1.95;;;16.90;83.20;;;;;;4839665;29;20026;-82
2023/10/31 04:20:11;;;;;;;5.82;2.47;;;16.90;82.40;;;;;;4829577;29;20102;-82
2023/10/31 04:22:37;;;;;;;3.90;1.80;;;16.90;83.20;;;;;;4834644;29;20502;-84
2023/10/31 04:25:03;;;;;;;6.03;2.38;;;16.90;83.20;;;;;;4826983;29;20060;-83
2023/10/31 04:27:29;;;;;;;6.53;2.92;;;16.90;82.80;;;;;;4842270;29;20026;-85
2023/10/31 04:29:55;;;;;;;8.00;2.58;;;16.90;83.20;;;;;;4842432;29;20034;-82
2023/10/31 04:32:21;;;;;;;4.45;2.63;;;17.00;82.10;;;;;;4842642;29;20030;-83
2023/10/31 04:34:47;;;;;;;5.47;2.95;;;17.00;82.40;;;;;;4842236;29;20033;-83
2023/10/31 04:37:12;;;;;;;3.80;2.20;;;17.00;82.10;;;;;;4835232;29;20031;-84
2023/10/31 04:39:38;;;;;;;5.95;2.38;;;17.00;82.90;;;;;;4837937;29;20085;-84
2023/10/31 04:42:04;;;;;;;5.43;2.10;;;17.00;82.80;;;;;;4843406;29;20040;-82
2023/10/31 04:44:30;;;;;;;3.65;2.03;;;17.00;82.60;;;;;;4843166;29;20250;-80
2023/10/31 04:46:56;;;;;;;4.63;1.92;;;17.00;82.90;;;;;;4843656;29;20030;-84
2023/10/31 04:49:21;;;;;;;6.25;2.55;;;16.90;83.40;;;;;;4847605;29;20044;-84
2023/10/31 04:51:48;;;;;;;5.93;1.95;;;16.90;83.70;;;;;;4837014;29;20061;-84
2023/10/31 04:54:14;;;;;;;3.15;2.00;;;16.90;83.00;;;;;;4843345;29;20112;-83
2023/10/31 04:56:40;;;;;;;4.20;2.22;;;16.90;82.80;;;;;;4836322;29;20517;-82
2023/10/31 04:59:06;;;;;;;3.53;2.28;;;16.90;83.60;;;;;;4842003;29;20432;-83
2023/10/31 05:01:31;;;;;;;7.22;2.78;;;16.90;82.90;;;;;;4845320;29;20081;-83
2023/10/31 05:03:57;;;;;;;8.93;2.33;;;16.90;82.60;;;;;;4855324;29;20046;-83
2023/10/31 05:06:23;;;;;;;4.30;2.03;;;16.90;82.50;;;;;;4842642;29;20034;-80
2023/10/31 05:08:49;;;;;;;3.83;2.45;;;17.00;82.10;;;;;;4842610;29;20117;-82
2023/10/31 05:11:18;;;;;;;6.18;2.50;;;17.00;82.00;;;;;;4842058;29;20045;-81
2023/10/31 05:13:45;;;;;;;5.82;3.22;;;17.00;82.40;;;;;;4842716;29;20026;-79
2023/10/31 05:16:11;;;;;;;5.72;2.15;;;17.00;82.40;;;;;;4844277;29;20057;-82
2023/10/31 05:18:38;;;;;;;6.75;2.40;;;17.10;81.70;;;;;;4836424;29;20026;-82
2023/10/31 05:21:05;;;;;;;5.60;2.67;;;17.10;81.40;;;;;;4835742;29;20073;-83
2023/10/31 05:23:31;;;;;;;5.47;2.25;;;17.20;81.30;;;;;;4842844;29;20022;-80
2023/10/31 05:25:57;;;;;;;6.10;2.72;;;17.20;81.20;;;;;;4845207;29;20109;-78
2023/10/31 05:28:23;;;;;;;5.90;2.70;;;17.20;81.80;;;;;;4842254;29;20470;-84
2023/10/31 05:30:49;;;;;;;6.07;2.40;;;17.10;82.00;;;;;;4845370;29;20025;-81
2023/10/31 05:33:18;;;;;;;9.45;3.10;;;17.20;81.80;;;;;;4847668;29;20037;-82
2023/10/31 05:35:44;;;;;;;5.07;2.58;;;17.10;83.20;;;;;;4854206;29;20030;-83
2023/10/31 05:38:09;;;;;;;5.68;2.45;;;17.00;82.90;;;;;;4857415;29;20382;-83
2023/10/31 05:40:35;;;;;;;4.85;2.28;;;17.00;82.10;;;;;;4851265;29;20037;-80
2023/10/31 05:43:02;;;;;;;5.50;2.63;;;17.00;82.40;;;;;;4847651;29;20021;-81
2023/10/31 05:45:28;;;;;;;4.38;2.67;;;17.00;81.80;;;;;;4845750;29;20073;-82
2023/10/31 05:47:54;;;;;;;9.23;2.67;;;17.00;82.30;;;;;;4846176;29;20053;-83
2023/10/31 05:50:20;;;;;;;10.45;2.85;;;17.00;90.30;;;;;;4854478;29;20430;-82
2023/10/31 05:52:46;;;;;;;6.28;2.92;;;17.00;81.80;;;;;;4847996;29;20038;-82
2023/10/31 05:55:12;;;;;;;7.50;3.72;;;17.00;82.10;;;;;;4844931;29;20041;-79
2023/10/31 05:57:38;;;;;;;11.07;5.63;;;17.00;82.40;;;;;;4844797;29;20022;-79
2023/10/31 06:00:04;;;;;;;19.13;13.73;;;17.00;81.80;;;;;;4844436;29;20034;-81
2023/10/31 06:02:38;;;;;;;16.92;12.52;;;16.90;81.90;;;;;;4844110;29;20104;-81
2023/10/31 06:05:04;;;;;;;19.52;12.00;;;17.00;82.00;;;;;;4850832;29;20121;-81
2023/10/31 06:07:30;;;;;;;19.58;9.57;;;17.00;81.80;;;;;;4844916;29;20087;-83
2023/10/31 06:09:56;;;;;;;23.85;15.65;;;17.00;82.00;;;;;;4844376;29;20050;-80
2023/10/31 06:12:22;;;;;;;29.55;20.10;;;17.00;82.90;;;;;;4845035;29;20041;-77
2023/10/31 06:14:47;;;;;;;19.60;11.88;;;17.00;81.80;;;;;;4844874;29;20025;-81
2023/10/31 06:17:13;;;;;;;13.98;7.03;;;17.10;80.50;;;;;;4848520;29;20518;-81
2023/10/31 06:19:47;;;;;;;13.75;5.45;;;17.20;80.10;;;;;;4847340;29;20038;-78
2023/10/31 06:22:13;;;;;;;9.85;4.25;;;17.20;79.50;;;;;;4845819;29;20072;-81
2023/10/31 06:24:40;;;;;;;8.55;3.83;;;17.30;79.40;;;;;;4844884;29;20075;-79
2023/10/31 06:27:06;;;;;;;8.80;3.45;;;17.30;79.10;;;;;;4844841;29;20372;-80
2023/10/31 06:29:32;;;;;;;9.93;4.15;;;17.40;78.50;;;;;;4845335;29;20041;-82
2023/10/31 06:31:58;;;;;;;8.48;3.63;;;17.40;79.40;;;;;;4828491;29;20489;-81
2023/10/31 06:34:23;;;;;;;8.80;2.78;;;17.50;78.70;;;;;;4845016;29;20453;-80
2023/10/31 06:36:50;;;;;;;6.30;3.47;;;17.50;78.40;;;;;;4846558;29;20029;-80
2023/10/31 06:39:16;;;;;;;8.23;3.13;;;17.50;78.20;;;;;;4845879;29;20065;-80
2023/10/31 06:41:42;;;;;;;7.07;2.42;;;17.60;78.40;;;;;;4846632;29;20065;-79
2023/10/31 06:44:07;;;;;;;7.57;2.83;;;17.60;77.50;;;;;;4845224;29;20450;-84
2023/10/31 06:46:33;;;;;;;5.93;2.30;;;17.70;77.40;;;;;;4846419;29;20076;-81
2023/10/31 06:48:59;;;;;;;5.63;2.70;;;17.70;77.30;;;;;;4845392;29;20030;-79
2023/10/31 06:51:25;;;;;;;11.85;6.10;;;17.80;77.30;;;;;;4845561;29;20098;-80
2023/10/31 06:53:51;;;;;;;14.55;7.32;;;17.80;77.50;;;;;;4845102;29;20033;-81
2023/10/31 06:56:17;;;;;;;20.33;11.25;;;17.90;76.90;;;;;;4845930;29;20513;-82
2023/10/31 06:58:42;;;;;;;20.50;13.90;;;17.90;77.30;;;;;;4845820;29;20112;-83
2023/10/31 07:01:08;;;;;;;25.73;16.40;;;18.00;77.10;;;;;;4845244;29;20450;-82
2023/10/31 07:03:34;;;;;;;25.63;18.55;;;17.90;77.30;;;;;;4859867;29;20777;-82
2023/10/31 07:06:00;;;;;;;19.65;14.77;;;18.00;77.60;;;;;;4845920;29;20387;-82
2023/10/31 07:08:26;;;;;;;21.15;10.38;;;18.00;77.00;;;;;;4845399;29;20049;-84
2023/10/31 07:10:51;;;;;;;11.45;7.28;;;18.00;77.00;;;;;;4844263;29;20526;-82
2023/10/31 07:13:17;;;;;;;12.85;5.47;;;18.00;77.40;;;;;;4844737;29;20033;-82
2023/10/31 07:15:44;;;;;;;7.88;4.28;;;18.10;76.30;;;;;;4854306;29;20458;-82
2023/10/31 07:18:09;;;;;;;13.65;6.10;;;18.10;77.30;;;;;;4846215;29;20053;-81
2023/10/31 07:20:35;;;;;;;13.93;6.38;;;18.20;77.70;;;;;;4843221;29;20092;-83
2023/10/31 07:23:01;;;;;;;20.45;5.95;;;18.30;77.80;;;;;;4843002;29;20033;-83
2023/10/31 07:25:27;;;;;;;18.42;6.22;;;18.30;76.30;;;;;;4842931;29;20037;-83
2023/10/31 07:27:53;;;;;;;13.65;7.45;;;18.40;76.50;;;;;;4843106;29;20398;-85
2023/10/31 07:30:19;;;;;;;19.05;8.48;;;18.50;78.10;;;;;;4855331;29;20034;-82
2023/10/31 07:32:45;;;;;;;23.80;13.43;;;18.60;76.50;;;;;;4842881;29;20543;-85
2023/10/31 07:35:11;;;;;;;17.40;11.70;;;18.70;76.60;;;;;;4860756;29;20186;-84
2023/10/31 07:37:37;;;;;;;14.23;10.73;;;18.80;78.20;;;;;;4849643;29;20034;-84
2023/10/31 07:40:04;;;;;;;15.93;9.20;;;18.90;79.20;;;;;;4842567;29;20046;-81
2023/10/31 07:42:30;;;;;;;16.92;7.80;;;19.00;77.40;;;;;;4842702;29;20026;-83
2023/10/31 07:44:56;;;;;;;10.68;5.65;;;19.20;77.80;;;;;;4842403;29;20026;-83
2023/10/31 07:47:21;;;;;;;12.50;5.70;;;19.20;77.90;;;;;;4842860;29;20030;-84
2023/10/31 07:49:48;;;;;;;13.38;6.22;;;19.30;78.20;;;;;;4842159;29;20467;-83
2023/10/31 07:52:14;;;;;;;12.15;6.57;;;19.40;77.70;;;;;;4842785;29;20053;-85
2023/10/31 07:54:40;;;;;;;11.20;5.70;;;19.50;78.20;;;;;;4841565;29;20034;-85
2023/10/31 07:57:07;;;;;;;9.40;4.88;;;19.60;77.70;;;;;;4842557;29;20030;-84
2023/10/31 07:59:36;;;;;;;7.63;4.13;;;19.70;78.90;;;;;;4842488;29;20086;-84
2023/10/31 08:02:02;;;;;;;7.00;3.40;;;19.70;78.00;;;;;;4842412;29;20500;-83
2023/10/31 08:04:29;;;;;;;7.95;3.80;;;19.80;77.30;;;;;;4830232;29;20029;-84
2023/10/31 08:06:55;;;;;;;7.68;3.35;;;19.80;77.00;;;;;;4842105;29;20029;-84
2023/10/31 08:09:21;;;;;;;10.70;3.13;;;19.90;77.00;;;;;;4841870;29;20093;-84
2023/10/31 08:11:47;;;;;;;9.70;3.33;;;19.90;74.50;;;;;;4841726;29;20026;-77
2023/10/31 08:14:15;;;;;;;17.77;3.67;;;19.90;74.10;;;;;;4842283;29;20026;-84
2023/10/31 08:16:42;;;;;;;14.05;4.22;;;19.90;74.30;;;;;;4841860;29;20485;-83
2023/10/31 08:19:07;;;;;;;5.18;3.22;;;20.00;75.30;;;;;;4849012;29;20044;-83
2023/10/31 08:21:35;;;;;;;10.57;4.43;;;19.90;73.30;;;;;;4847097;29;20478;-82
2023/10/31 08:24:05;;;;;;;10.70;4.18;;;19.80;76.90;;;;;;4841967;29;20034;-83
2023/10/31 08:26:31;;;;;;;9.05;3.40;;;19.70;79.40;;;;;;4841619;29;20090;-83
2023/10/31 08:28:57;;;;;;;11.85;3.58;;;19.50;79.80;;;;;;4842030;29;20089;-77
2023/10/31 08:31:24;;;;;;;8.73;3.75;;;19.50;80.10;;;;;;4841470;29;20386;-83
2023/10/31 08:33:49;;;;;;;13.82;5.05;;;19.50;79.30;;;;;;4841761;29;20114;-83
2023/10/31 08:36:15;;;;;;;8.02;3.28;;;19.50;78.80;;;;;;4841896;29;20053;-83
2023/10/31 08:38:41;;;;;;;9.98;4.55;;;19.50;77.80;;;;;;4841430;29;20501;-81
2023/10/31 08:41:07;;;;;;;8.07;3.15;;;19.50;79.70;;;;;;4841663;29;20525;-81
2023/10/31 08:43:33;;;;;;;9.15;3.95;;;19.50;79.20;;;;;;4841259;29;20037;-82
2023/10/31 08:45:59;;;;;;;7.35;4.32;;;19.50;77.30;;;;;;4841505;29;20073;-77
2023/10/31 08:48:25;;;;;;;17.85;5.20;;;19.60;79.20;;;;;;4842311;29;20109;-81
2023/10/31 08:50:50;;;;;;;15.52;5.13;;;19.70;77.10;;;;;;4841678;29;20034;-82
2023/10/31 08:53:18;;;;;;;10.65;4.68;;;19.70;77.40;;;;;;4843808;29;20038;-82
2023/10/31 08:55:44;;;;;;;15.18;5.25;;;19.80;76.20;;;;;;4842090;29;20044;-83
2023/10/31 08:58:14;;;;;;;13.68;4.03;;;19.80;76.80;;;;;;4842909;29;20029;-82
2023/10/31 09:00:40;;;;;;;5.95;3.20;;;19.90;75.50;;;;;;4843205;29;20402;-83
2023/10/31 09:03:07;;;;;;;9.98;3.08;;;19.90;75.80;;;;;;4843996;29;20030;-80
2023/10/31 09:05:33;;;;;;;8.90;3.10;;;20.00;74.90;;;;;;4841980;29;20053;-82
2023/10/31 09:07:59;;;;;;;18.08;4.00;;;20.00;74.00;;;;;;4844715;29;20463;-82
2023/10/31 09:10:25;;;;;;;11.75;4.13;;;20.10;74.50;;;;;;4843306;29;20096;-82
2023/10/31 09:12:51;;;;;;;7.70;3.92;;;20.00;75.10;;;;;;4843908;29;20022;-79
2023/10/31 09:15:18;;;;;;;8.48;3.88;;;20.00;75.70;;;;;;4844081;29;20093;-83
2023/10/31 09:17:44;;;;;;;8.23;3.72;;;20.00;76.70;;;;;;4845178;29;20499;-83
2023/10/31 09:20:11;;;;;;;8.73;4.22;;;19.90;76.20;;;;;;4842971;29;20054;-81
2023/10/31 09:22:37;;;;;;;8.95;4.07;;;19.90;75.80;;;;;;4827628;29;20042;-77
2023/10/31 09:25:04;;;;;;;16.13;5.45;;;19.90;76.10;;;;;;4842979;29;20042;-81
2023/10/31 09:27:30;;;;;;;11.55;5.38;;;19.90;75.90;;;;;;4843421;29;20059;-82
2023/10/31 09:29:55;;;;;;;10.30;5.10;;;19.90;75.30;;;;;;4843358;29;20038;-82
2023/10/31 09:32:21;;;;;;;9.57;4.40;;;19.90;74.90;;;;;;4843427;29;20074;-77
2023/10/31 09:34:47;;;;;;;7.93;3.30;;;19.90;75.70;;;;;;4831976;29;20034;-83
2023/10/31 09:37:13;;;;;;;6.57;2.80;;;19.90;75.20;;;;;;4844764;29;20033;-81
2023/10/31 09:39:39;;;;;;;7.30;3.55;;;19.90;75.80;;;;;;4842896;29;20133;-86
2023/10/31 09:42:06;;;;;;;9.77;3.90;;;19.80;76.40;;;;;;4843943;29;20022;-82
2023/10/31 09:44:32;;;;;;;8.07;3.20;;;19.80;77.10;;;;;;4844629;29;20044;-82
2023/10/31 09:46:59;;;;;;;6.82;2.63;;;19.80;76.20;;;;;;4842375;29;20463;-83
2023/10/31 09:49:25;;;;;;;8.23;3.20;;;19.80;76.50;;;;;;4842133;29;20030;-80
2023/10/31 09:51:51;;;;;;;6.63;3.30;;;19.80;77.20;;;;;;4843541;29;20105;-82
2023/10/31 09:54:18;;;;;;;9.38;2.65;;;19.70;77.10;;;;;;4843524;29;20034;-78
2023/10/31 09:56:43;;;;;;;7.78;2.88;;;19.70;76.70;;;;;;4843448;29;20030;-81
2023/10/31 09:59:10;;;;;;;7.25;3.08;;;19.70;77.90;;;;;;4844329;29;20070;-82
2023/10/31 10:01:35;;;;;;;7.15;2.35;;;19.70;77.00;;;;;;4843850;29;20434;-84
2023/10/31 10:04:02;;;;;;;5.32;2.95;;;19.70;75.90;;;;;;4832308;29;20094;-84
2023/10/31 10:06:28;;;;;;;10.75;4.22;;;19.80;75.90;;;;;;4854444;29;20113;-83
2023/10/31 10:08:56;;;;;;;6.82;2.97;;;19.90;76.60;;;;;;4835208;29;20050;-84
2023/10/31 10:11:22;;;;;;;9.82;3.65;;;19.90;76.60;;;;;;4843835;29;20427;-78
2023/10/31 10:13:48;;;;;;;11.30;3.10;;;19.90;76.60;;;;;;4843398;29;20026;-82
2023/10/31 10:16:31;;;;;;;6.93;2.92;;;19.90;76.40;;;;;;4844867;29;20030;-82
2023/10/31 10:18:57;;;;;;;7.03;3.58;;;19.90;76.50;;;;;;4845462;29;20045;-82
2023/10/31 10:21:23;;;;;;;11.90;4.22;;;19.90;76.20;;;;;;4847570;29;20038;-81
2023/10/31 10:23:52;;;;;;;7.70;4.00;;;19.90;77.30;;;;;;4842852;29;20054;-81
2023/10/31 10:26:20;;;;;;;8.82;4.38;;;19.90;77.40;;;;;;4840079;29;20501;-82
2023/10/31 10:28:50;;;;;;;14.90;5.10;;;19.90;77.00;;;;;;4846227;29;20084;-83
2023/10/31 10:31:15;;;;;;;15.88;5.60;;;19.90;78.10;;;;;;4829732;29;20034;-77
2023/10/31 10:33:41;;;;;;;11.18;4.93;;;20.00;78.80;;;;;;4847643;29;20038;-82
2023/10/31 10:36:10;;;;;;;10.93;4.53;;;20.00;78.10;;;;;;4848854;29;20037;-82
2023/10/31 10:38:37;;;;;;;9.20;3.83;;;20.00;79.20;;;;;;4849155;29;20049;-85
2023/10/31 10:41:06;;;;;;;7.80;3.45;;;20.10;78.80;;;;;;4849024;29;20034;-83
2023/10/31 10:43:37;;;;;;;7.35;3.28;;;20.10;78.60;;;;;;4847701;29;20061;-83
2023/10/31 10:46:05;;;;;;;14.40;3.60;;;20.20;77.00;;;;;;4848591;29;20033;-83
2023/10/31 10:48:35;;;;;;;9.27;3.85;;;20.30;78.70;;;;;;4848421;29;20026;-85
2023/10/31 10:51:25;;;;;;;8.98;3.30;;;20.50;77.80;;;;;;4852326;29;20036;-82
2023/10/31 10:54:14;;;;;;;4.82;2.65;;;20.60;77.50;;;;;;4855565;29;20372;-87
2023/10/31 10:56:52;;;;;;;19.67;3.28;;;20.70;76.80;;;;;;4838443;29;20034;-86
2023/10/31 10:59:43;;;;;;;8.38;3.53;;;20.80;76.90;;;;;;4831433;29;20113;-85
2023/10/31 11:02:10;;;;;;;5.25;2.65;;;20.90;76.30;;;;;;4848416;29;20038;-84
2023/10/31 11:04:36;;;;;;;5.97;2.70;;;21.00;77.60;;;;;;4847594;29;20121;-85
2023/10/31 11:07:03;;;;;;;8.98;3.83;;;21.00;76.20;;;;;;4846755;29;20126;-82
2023/10/31 11:09:31;;;;;;;6.40;2.92;;;21.10;76.10;;;;;;4858441;29;20057;-86
2023/10/31 11:11:58;;;;;;;5.72;2.97;;;21.20;77.10;;;;;;4851693;29;20046;-85
2023/10/31 11:14:26;;;;;;;11.57;3.15;;;21.30;76.40;;;;;;4847001;29;20049;-78
2023/10/31 11:16:55;;;;;;;10.13;3.20;;;21.50;77.10;;;;;;4821100;29;20045;-84
2023/10/31 11:19:24;;;;;;;15.65;3.00;;;21.60;76.50;;;;;;4847280;29;20034;-85
2023/10/31 11:22:00;;;;;;;7.57;3.40;;;21.70;76.80;;;;;;4846716;29;20030;-81
2023/10/31 11:24:37;;;;;;;10.35;3.60;;;21.70;77.50;;;;;;4849255;29;20089;-85
2023/10/31 11:27:05;;;;;;;9.13;3.10;;;21.80;76.80;;;;;;4846064;29;20054;-83
2023/10/31 11:29:31;;;;;;;7.57;3.63;;;21.80;77.10;;;;;;4846197;29;20026;-84
2023/10/31 11:31:57;;;;;;;13.30;3.70;;;21.90;76.60;;;;;;4845027;29;20580;-84
2023/10/31 11:34:26;;;;;;;8.93;4.25;;;22.00;76.40;;;;;;4846400;29;20026;-78
2023/10/31 11:36:52;;;;;;;8.05;3.83;;;22.00;76.80;;;;;;4845352;29;20026;-85
2023/10/31 11:39:21;;;;;;;11.48;4.50;;;22.10;77.50;;;;;;4847178;29;20048;-84
2023/10/31 11:41:54;;;;;;;15.43;5.43;;;22.10;77.50;;;;;;4847507;29;20030;-85
2023/10/31 11:44:25;;;;;;;14.10;4.30;;;22.10;77.70;;;;;;4846574;29;20112;-84
2023/10/31 11:46:52;;;;;;;15.20;5.05;;;22.20;77.80;;;;;;4854673;29;20070;-83
2023/10/31 11:49:38;;;;;;;16.48;5.72;;;22.20;78.60;;;;;;4846324;29;20030;-87
2023/10/31 11:52:17;;;;;;;17.95;7.00;;;22.30;77.60;;;;;;4845799;29;20086;-84
2023/10/31 11:54:44;;;;;;;14.27;6.15;;;22.50;77.10;;;;;;4846706;29;20494;-82
2023/10/31 11:57:09;;;;;;;20.83;7.65;;;22.60;77.10;;;;;;4845218;29;20055;-82
2023/10/31 11:59:37;;;;;;;16.73;8.55;;;22.70;76.30;;;;;;4845682;29;20436;-84
2023/10/31 12:02:13;;;;;;;11.27;5.72;;;;;;;;;;4844249;29;20383;-81
2023/10/31 12:04:39;;;;;;;13.15;5.00;;;22.80;75.30;;;;;;4844665;29;20022;-83
2023/10/31 12:07:05;;;;;;;14.73;4.43;;;22.80;74.80;;;;;;4842858;29;20056;-81
2023/10/31 12:09:31;;;;;;;14.80;4.30;;;22.80;74.80;;;;;;4833585;29;20061;-83
2023/10/31 12:11:57;;;;;;;12.98;4.00;;;22.70;74.50;;;;;;4844472;29;20041;-83
2023/10/31 12:14:23;;;;;;;9.73;4.00;;;22.70;74.60;;;;;;4844733;29;20042;-85
2023/10/31 12:16:49;;;;;;;14.07;4.88;;;22.80;75.90;;;;;;4845769;29;20033;-84
2023/10/31 12:19:15;;;;;;;16.02;4.85;;;22.70;74.60;;;;;;4854952;29;20067;-84
2023/10/31 12:21:47;;;;;;;11.05;4.28;;;22.70;75.70;;;;;;4844645;29;20027;-83
2023/10/31 12:24:15;;;;;;;12.23;5.03;;;22.80;74.50;;;;;;4843970;29;20367;-84
2023/10/31 12:26:42;;;;;;;17.02;5.32;;;22.70;74.90;;;;;;4829243;29;20026;-83
2023/10/31 12:29:12;;;;;;;10.85;5.05;;;22.70;75.50;;;;;;4844474;29;20395;-84
2023/10/31 12:31:52;;;;;;;16.02;6.90;;;22.70;74.80;;;;;;4828588;29;20466;-83
2023/10/31 12:34:24;;;;;;;19.00;9.30;;;22.70;76.30;;;;;;4844023;29;20105;-84
2023/10/31 12:36:55;;;;;;;17.92;9.68;;;22.60;75.20;;;;;;4846230;29;20106;-83
2023/10/31 12:39:26;;;;;;;17.88;7.97;;;22.60;76.10;;;;;;4844994;29;20061;-83